Time;durP1;ratioP1;P1;durP2;ratioP2;P2;SDS_P1;SDS_P2;PMS_P1;PMS_P2;Temp;Humidity;BMP_temperature;BMP_pressure;BME280_temperature;BME280_humidity;BME280_pressure;Samples;Min_cycle;Max_cycle;Signal;HPM_P1;HPM_P2
2022/12/05 05:00:06;;;;;;;2.53;1.05;;;19.00;99.90;;;;;;5140138;23;20241;-79
2022/12/05 05:05:51;;;;;;;3.85;1.02;;;18.90;99.90;;;;;;4994670;28;20244;-78
2022/12/05 05:08:19;;;;;;;1.42;1.13;;;18.90;99.90;;;;;;4994949;28;20237;-78
2022/12/05 05:10:55;;;;;;;1.30;1.20;;;18.90;99.90;;;;;;4994253;28;20198;-77
2022/12/05 05:13:22;;;;;;;3.17;1.02;;;18.90;99.90;;;;;;4995165;28;20205;-77
2022/12/05 05:15:50;;;;;;;1.05;1.00;;;18.90;99.90;;;;;;4994173;28;20208;-77
2022/12/05 05:18:16;;;;;;;1.05;1.05;;;18.90;99.90;;;;;;4993914;28;20234;-77
2022/12/05 05:20:43;;;;;;;1.00;1.00;;;18.90;99.90;;;;;;4993689;28;20578;-77
2022/12/05 05:23:10;;;;;;;1.85;0.85;;;18.80;99.90;;;;;;4993838;28;20206;-76
2022/12/05 05:25:37;;;;;;;1.80;1.13;;;18.80;99.90;;;;;;4994422;28;20209;-76
2022/12/05 05:28:04;;;;;;;0.93;0.93;;;18.80;99.90;;;;;;4997842;28;20226;-77
2022/12/05 05:30:30;;;;;;;1.67;1.45;;;18.80;99.90;;;;;;4997967;28;20685;-77
2022/12/05 05:32:59;;;;;;;8.77;3.30;;;18.80;99.90;;;;;;4998688;28;20202;-77
2022/12/05 05:35:26;;;;;;;3.45;2.10;;;18.90;99.90;;;;;;5000141;28;20209;-78
2022/12/05 05:37:53;;;;;;;5.80;2.67;;;18.90;99.90;;;;;;4999490;28;20202;-78
2022/12/05 05:40:20;;;;;;;9.07;2.70;;;18.90;99.90;;;;;;4999083;28;20226;-78
2022/12/05 05:42:48;;;;;;;2.72;2.40;;;18.90;99.90;;;;;;4999981;28;20202;-79
2022/12/05 05:45:16;;;;;;;8.10;3.47;;;19.00;99.90;;;;;;5001710;28;20206;-79
2022/12/05 05:47:43;;;;;;;16.92;4.40;;;18.80;99.90;;;;;;5001571;28;20701;-80
2022/12/05 05:50:11;;;;;;;13.52;3.92;;;18.90;99.90;;;;;;5000676;28;20226;-78
2022/12/05 05:52:38;;;;;;;15.85;3.85;;;18.90;99.90;;;;;;5001062;28;20236;-79
2022/12/05 05:55:06;;;;;;;24.58;3.85;;;18.90;99.90;;;;;;5000691;28;20285;-78
2022/12/05 05:57:33;;;;;;;20.40;4.45;;;18.90;99.90;;;;;;5000355;28;20202;-82
2022/12/05 06:00:00;;;;;;;20.45;4.80;;;19.20;99.90;;;;;;4998520;28;20222;-79
2022/12/05 06:02:32;;;;;;;22.38;4.45;;;19.00;99.90;;;;;;5001329;28;20217;-78
2022/12/05 06:04:58;;;;;;;19.05;7.40;;;19.00;99.90;;;;;;5000117;28;20186;-79
2022/12/05 06:07:27;;;;;;;32.22;7.63;;;19.00;99.90;;;;;;4998556;28;20225;-78
2022/12/05 06:09:53;;;;;;;33.22;7.30;;;18.90;99.90;;;;;;5000229;28;20222;-79
2022/12/05 06:12:20;;;;;;;18.30;7.30;;;18.90;99.90;;;;;;5002002;28;20207;-79
2022/12/05 06:14:47;;;;;;;23.05;7.20;;;18.80;99.90;;;;;;5004570;28;20202;-79
2022/12/05 06:17:14;;;;;;;25.13;7.38;;;18.70;99.90;;;;;;5004232;28;20229;-80
2022/12/05 11:33:20;;;;;;;22.35;2.13;;;18.90;99.90;;;;;;5076412;23;20225;-76
2022/12/05 11:35:47;;;;;;;12.75;2.30;;;18.90;99.90;;;;;;4996202;28;20196;-75
2022/12/05 11:38:16;;;;;;;11.32;2.30;;;18.90;99.90;;;;;;4995904;28;20201;-74
2022/12/05 11:40:53;;;;;;;13.23;2.05;;;18.90;99.90;;;;;;4995213;28;20198;-74
2022/12/05 11:43:47;;;;;;;14.80;2.30;;;18.90;99.90;;;;;;4975498;28;20187;-75
2022/12/05 11:46:26;;;;;;;12.43;2.35;;;18.90;99.90;;;;;;4971579;28;20209;-74
2022/12/05 11:49:08;;;;;;;9.35;1.92;;;18.90;99.90;;;;;;4975961;28;20237;-74
2022/12/05 11:51:39;;;;;;;12.25;2.25;;;18.90;99.90;;;;;;4975982;28;20238;-74
2022/12/05 11:54:32;;;;;;;10.65;2.10;;;18.90;99.90;;;;;;4975851;28;20190;-74
2022/12/05 11:57:05;;;;;;;14.50;2.00;;;19.00;99.90;;;;;;4967856;28;20662;-74
2022/12/05 11:59:52;;;;;;;17.88;2.97;;;19.00;99.90;;;;;;4976199;28;20195;-73
2022/12/05 12:02:32;;;;;;;12.65;2.50;;;18.90;99.90;;;;;;4976185;28;20223;-74
2022/12/05 12:05:08;;;;;;;16.80;2.88;;;18.90;99.90;;;;;;4976203;28;20195;-73
2022/12/05 12:07:49;;;;;;;13.68;2.50;;;18.90;99.90;;;;;;4976374;28;20203;-74
2022/12/05 12:10:25;;;;;;;10.13;2.25;;;18.90;99.90;;;;;;4976598;28;20191;-74
2022/12/05 12:13:07;;;;;;;12.20;2.13;;;19.00;99.90;;;;;;4976214;28;20728;-74
2022/12/05 12:16:01;;;;;;;15.48;3.35;;;18.90;99.90;;;;;;4976368;28;20199;-74
2022/12/05 12:18:55;;;;;;;21.38;6.60;;;19.00;99.90;;;;;;4976454;28;20194;-74
2022/12/05 12:21:34;;;;;;;17.40;12.27;;;19.00;99.90;;;;;;4975673;28;20231;-75
2022/12/05 12:24:11;;;;;;;16.02;9.60;;;19.10;99.90;;;;;;4975261;28;20187;-74
2022/12/05 12:26:46;;;;;;;28.05;12.68;;;19.20;99.90;;;;;;4975363;28;20191;-74
2022/12/05 12:29:26;;;;;;;14.80;12.88;;;19.20;99.90;;;;;;4975438;28;20218;-74
2022/12/05 12:32:07;;;;;;;31.98;15.98;;;19.20;99.90;;;;;;4975435;28;20223;-74
2022/12/05 12:35:03;;;;;;;34.85;13.52;;;19.20;99.90;;;;;;4974817;28;20265;-74
2022/12/05 12:37:40;;;;;;;22.83;12.13;;;19.30;99.90;;;;;;4975172;28;20183;-74
2022/12/05 12:40:14;;;;;;;24.80;11.98;;;19.30;99.90;;;;;;4974862;28;20628;-74
2022/12/05 12:42:50;;;;;;;31.23;10.55;;;19.40;99.90;;;;;;4975113;28;20233;-74
2022/12/05 12:45:44;;;;;;;17.15;9.40;;;19.40;99.90;;;;;;4974801;28;20553;-73
2022/12/05 12:48:31;;;;;;;26.38;9.13;;;19.40;99.90;;;;;;4975021;28;20261;-74
2022/12/05 12:51:02;;;;;;;21.23;8.23;;;19.30;99.90;;;;;;4974950;28;20187;-74
2022/12/05 12:54:08;;;;;;;22.58;8.80;;;19.40;99.90;;;;;;4975460;28;20210;-74
2022/12/05 12:56:43;;;;;;;27.55;7.97;;;19.40;99.90;;;;;;4939832;28;20202;-73
2022/12/05 12:59:23;;;;;;;28.02;8.48;;;19.30;99.90;;;;;;4974572;28;20195;-74
2022/12/05 13:01:54;;;;;;;20.75;7.25;;;19.30;99.90;;;;;;4974549;28;20222;-74
2022/12/05 13:04:25;;;;;;;12.63;6.38;;;19.20;99.90;;;;;;4976494;28;20182;-73
2022/12/05 13:06:56;;;;;;;16.15;6.80;;;19.10;99.90;;;;;;4975187;28;20191;-73
2022/12/05 13:09:28;;;;;;;18.27;6.93;;;19.00;99.90;;;;;;4974917;28;20254;-74
2022/12/05 13:11:58;;;;;;;20.98;6.18;;;19.00;99.90;;;;;;4974553;28;20219;-73
2022/12/05 13:14:26;;;;;;;22.08;6.70;;;18.90;99.90;;;;;;4974781;28;20203;-73
2022/12/05 13:16:55;;;;;;;17.85;5.63;;;18.90;99.90;;;;;;4974741;28;20203;-73
2022/12/05 13:19:27;;;;;;;24.00;5.22;;;18.90;99.90;;;;;;4974467;28;20203;-73
2022/12/05 13:21:56;;;;;;;12.55;5.25;;;18.90;99.90;;;;;;4974438;28;20732;-74
2022/12/05 13:24:27;;;;;;;12.20;4.75;;;18.90;99.90;;;;;;4974731;28;20198;-74
2022/12/05 13:26:59;;;;;;;20.27;4.80;;;18.80;99.90;;;;;;4974714;28;20187;-75
2022/12/05 13:29:31;;;;;;;8.65;4.20;;;18.90;99.90;;;;;;4974631;28;20207;-74
2022/12/05 13:31:58;;;;;;;17.75;5.28;;;18.80;99.90;;;;;;4975037;28;20231;-74
2022/12/05 13:34:48;;;;;;;14.95;4.50;;;18.80;99.90;;;;;;4974504;28;20229;-74
2022/12/05 13:43:06;;;;;;;13.95;4.47;;;18.80;99.90;;;;;;4974262;28;20229;-74
2022/12/05 13:45:34;;;;;;;14.02;3.63;;;18.90;99.90;;;;;;4974576;28;20203;-73
2022/12/05 13:48:19;;;;;;;12.73;3.92;;;18.80;99.90;;;;;;4977044;28;20714;-74
2022/12/05 13:50:52;;;;;;;9.07;3.35;;;18.70;99.90;;;;;;4978250;28;20191;-75
2022/12/05 13:53:29;;;;;;;11.43;4.35;;;18.80;99.90;;;;;;4978285;28;20203;-74
2022/12/05 13:56:00;;;;;;;10.77;3.70;;;18.80;99.90;;;;;;4978147;28;20191;-74
2022/12/05 13:58:47;;;;;;;12.90;3.83;;;18.80;99.90;;;;;;4977740;28;20551;-75
2022/12/05 14:01:46;;;;;;;6.70;3.25;;;18.70;99.90;;;;;;4977931;28;20310;-75
2022/12/05 14:04:49;;;;;;;8.88;3.13;;;18.70;99.90;;;;;;4977941;28;20191;-74
2022/12/05 14:07:41;;;;;;;16.15;3.53;;;18.70;99.90;;;;;;4979481;28;20245;-76
2022/12/05 14:10:11;;;;;;;22.02;3.67;;;18.70;99.90;;;;;;4982873;28;20192;-77
2022/12/05 14:12:52;;;;;;;18.33;3.95;;;18.80;99.90;;;;;;4983433;28;20765;-77
2022/12/05 14:15:28;;;;;;;11.15;3.05;;;18.90;99.90;;;;;;4980666;28;20191;-75
2022/12/05 14:18:15;;;;;;;21.95;4.05;;;19.00;99.90;;;;;;4978034;28;20199;-75
2022/12/05 14:20:56;;;;;;;16.92;3.45;;;19.00;99.90;;;;;;4983213;28;20183;-73
2022/12/05 14:23:39;;;;;;;14.35;3.38;;;18.90;99.90;;;;;;4983850;28;20187;-74
2022/12/05 14:26:31;;;;;;;15.32;3.53;;;18.90;99.90;;;;;;4983681;28;20209;-75
2022/12/05 14:29:24;;;;;;;25.92;3.15;;;18.90;99.90;;;;;;4983509;28;20257;-75
2022/12/05 14:32:04;;;;;;;19.73;3.05;;;19.00;99.90;;;;;;4982041;28;20226;-75
2022/12/05 14:34:33;;;;;;;13.18;3.05;;;18.80;99.90;;;;;;4982915;28;20215;-75
2022/12/05 14:37:04;;;;;;;12.77;3.05;;;18.80;99.90;;;;;;4983293;28;20294;-75
2022/12/05 14:39:41;;;;;;;17.25;2.92;;;18.80;99.90;;;;;;4984259;28;20203;-75
2022/12/05 14:42:23;;;;;;;12.27;3.10;;;18.80;99.90;;;;;;4985245;28;20222;-74
2022/12/05 14:44:55;;;;;;;12.90;2.85;;;18.80;99.90;;;;;;4988705;28;20187;-76
2022/12/05 14:47:27;;;;;;;10.10;2.53;;;18.90;99.90;;;;;;4986965;28;20198;-75
2022/12/05 14:50:00;;;;;;;9.13;2.25;;;18.70;99.90;;;;;;4986087;28;20635;-75
2022/12/05 14:52:30;;;;;;;6.78;2.45;;;18.70;99.90;;;;;;4985809;28;20231;-75
2022/12/05 14:55:08;;;;;;;7.95;2.55;;;18.70;99.90;;;;;;4986680;28;20210;-75
2022/12/05 14:57:41;;;;;;;12.02;3.03;;;18.70;99.90;;;;;;4987154;28;20258;-76
2022/12/05 15:00:21;;;;;;;12.45;2.80;;;18.90;99.90;;;;;;4984743;28;20223;-76
2022/12/05 15:02:51;;;;;;;7.70;2.30;;;18.70;99.90;;;;;;4985938;28;20222;-76
2022/12/05 15:05:24;;;;;;;7.68;2.90;;;18.70;99.90;;;;;;4986948;28;20223;-76
2022/12/05 15:07:52;;;;;;;9.43;2.60;;;18.80;99.90;;;;;;4986807;28;20194;-75
2022/12/05 15:10:24;;;;;;;4.68;2.30;;;18.70;99.90;;;;;;4987465;28;20199;-75
2022/12/05 15:12:55;;;;;;;6.78;2.42;;;18.80;99.90;;;;;;4985723;28;20281;-75
2022/12/05 15:15:36;;;;;;;9.15;2.85;;;18.70;99.90;;;;;;4986014;28;20184;-75
2022/12/05 15:18:12;;;;;;;7.88;2.72;;;18.70;99.90;;;;;;4987478;28;20183;-75
2022/12/05 15:20:46;;;;;;;7.50;2.50;;;18.70;99.90;;;;;;4986071;28;20617;-76
2022/12/05 15:23:42;;;;;;;6.72;2.30;;;18.70;99.90;;;;;;4990788;28;20211;-77
2022/12/05 15:26:26;;;;;;;9.98;2.17;;;18.70;99.90;;;;;;4989929;28;20682;-75
2022/12/05 15:29:01;;;;;;;5.03;2.08;;;18.70;99.90;;;;;;4978117;28;20229;-75
2022/12/05 15:31:32;;;;;;;6.93;2.60;;;18.70;99.90;;;;;;4980856;28;20226;-75
2022/12/05 15:34:05;;;;;;;6.97;2.30;;;18.80;99.90;;;;;;4980562;28;20685;-75
2022/12/05 15:36:35;;;;;;;6.30;1.88;;;19.00;99.90;;;;;;4981049;28;20230;-76
2022/12/05 15:39:06;;;;;;;10.13;2.13;;;19.20;99.90;;;;;;4977432;28;20619;-75
2022/12/05 15:41:33;;;;;;;8.32;2.30;;;19.30;99.90;;;;;;4977997;28;20226;-75
2022/12/05 15:44:00;;;;;;;7.28;2.38;;;19.40;99.90;;;;;;4977156;28;20206;-77
2022/12/05 15:46:28;;;;;;;8.88;2.45;;;19.50;99.90;;;;;;4977109;28;20570;-76
2022/12/05 15:48:59;;;;;;;11.68;2.53;;;19.40;99.90;;;;;;4977407;28;20741;-75
2022/12/05 15:51:31;;;;;;;8.60;2.20;;;19.40;99.90;;;;;;4977254;28;20227;-75
2022/12/05 15:54:04;;;;;;;6.93;2.05;;;19.30;99.90;;;;;;4976680;28;20725;-75
2022/12/05 15:56:35;;;;;;;8.50;2.15;;;19.30;99.90;;;;;;4975975;28;20187;-73
2022/12/05 15:59:07;;;;;;;4.28;2.33;;;19.30;99.90;;;;;;4975845;28;20214;-74
2022/12/05 16:01:41;;;;;;;10.68;2.10;;;19.20;99.90;;;;;;4975874;28;20233;-74
2022/12/05 16:04:15;;;;;;;9.18;2.08;;;19.10;99.90;;;;;;4975497;28;20669;-74
2022/12/05 16:06:45;;;;;;;8.73;2.55;;;19.20;99.90;;;;;;4975725;28;20191;-74
2022/12/05 16:09:16;;;;;;;8.93;2.00;;;19.10;99.90;;;;;;4975581;28;20211;-74
2022/12/05 16:11:51;;;;;;;12.45;2.38;;;19.10;99.90;;;;;;4975594;28;20230;-75
2022/12/05 16:14:19;;;;;;;8.75;2.15;;;19.10;99.90;;;;;;4975342;28;20557;-74
2022/12/05 16:16:46;;;;;;;5.15;1.75;;;19.10;99.90;;;;;;4975583;28;20527;-74
2022/12/05 16:19:17;;;;;;;5.70;1.63;;;19.10;99.90;;;;;;4975253;28;20659;-74
2022/12/05 16:21:46;;;;;;;6.40;2.03;;;19.10;99.90;;;;;;4975357;28;20582;-74
2022/12/05 16:24:18;;;;;;;8.38;2.05;;;19.10;99.90;;;;;;4975137;28;20693;-74
2022/12/05 16:26:56;;;;;;;5.40;2.20;;;19.10;99.90;;;;;;4975392;28;20205;-74
2022/12/05 16:29:28;;;;;;;6.05;1.83;;;19.10;99.90;;;;;;4975361;28;20214;-75
2022/12/05 16:31:56;;;;;;;14.80;2.15;;;19.00;99.90;;;;;;4974904;28;20716;-74
2022/12/05 16:34:26;;;;;;;7.90;1.50;;;19.00;99.90;;;;;;4974866;28;20210;-73
2022/12/05 16:36:55;;;;;;;9.23;1.95;;;19.00;99.90;;;;;;4975196;28;20206;-74
2022/12/05 16:39:24;;;;;;;12.10;2.22;;;18.90;99.90;;;;;;4975231;28;20270;-73
2022/12/05 16:41:51;;;;;;;6.40;2.10;;;18.90;99.90;;;;;;4975063;28;20227;-74
2022/12/05 16:45:00;;;;;;;9.55;2.30;;;18.90;99.90;;;;;;4975174;28;20221;-73
2022/12/05 16:47:55;;;;;;;10.93;1.75;;;18.90;99.90;;;;;;4946427;28;20581;-78
2022/12/05 16:50:33;;;;;;;6.15;1.85;;;18.80;99.90;;;;;;4975522;28;20215;-76
2022/12/05 16:53:02;;;;;;;6.80;2.15;;;18.80;99.90;;;;;;4974956;28;20222;-73
2022/12/05 16:55:34;;;;;;;13.65;2.05;;;18.80;99.90;;;;;;4975460;28;20214;-73
2022/12/05 16:58:01;;;;;;;15.93;1.90;;;18.80;99.90;;;;;;4974963;28;20191;-73
2022/12/05 17:00:29;;;;;;;5.88;1.65;;;18.70;99.90;;;;;;4974868;28;20203;-73
2022/12/05 17:02:56;;;;;;;4.03;2.03;;;18.80;99.90;;;;;;4974825;28;20309;-73
2022/12/05 17:05:23;;;;;;;10.13;2.03;;;18.70;99.90;;;;;;4974996;28;20191;-73
2022/12/05 17:07:52;;;;;;;15.05;2.00;;;18.80;99.90;;;;;;4974827;28;20187;-73
2022/12/05 17:10:18;;;;;;;5.90;2.10;;;18.80;99.90;;;;;;4974441;28;20717;-73
2022/12/05 17:12:45;;;;;;;4.85;1.80;;;18.80;99.90;;;;;;4974988;28;20238;-74
2022/12/05 17:15:16;;;;;;;5.45;2.17;;;18.80;99.90;;;;;;4974792;28;20207;-73
2022/12/05 17:17:43;;;;;;;7.00;1.83;;;18.90;99.90;;;;;;4974794;28;20226;-75
2022/12/05 17:20:11;;;;;;;7.40;1.90;;;18.80;99.90;;;;;;4974695;28;20266;-75
2022/12/05 17:22:39;;;;;;;7.63;1.85;;;18.70;99.90;;;;;;4977055;28;20296;-74
2022/12/05 17:25:18;;;;;;;13.38;3.40;;;18.70;99.90;;;;;;4978289;28;20670;-76
2022/12/05 17:27:45;;;;;;;15.88;3.70;;;18.70;99.90;;;;;;4978509;28;20245;-75
2022/12/05 17:30:11;;;;;;;12.85;3.78;;;18.70;99.90;;;;;;4978386;28;20223;-76
2022/12/05 17:32:38;;;;;;;15.18;4.57;;;18.70;99.90;;;;;;4978340;28;20226;-76
2022/12/05 17:35:15;;;;;;;22.00;4.38;;;18.70;99.90;;;;;;4978132;28;20222;-76
2022/12/05 17:37:42;;;;;;;28.08;5.90;;;18.70;99.90;;;;;;4978446;28;20311;-76
2022/12/05 17:40:12;;;;;;;23.00;6.25;;;18.70;99.90;;;;;;4978343;28;20211;-76
2022/12/05 17:42:39;;;;;;;18.70;5.75;;;18.60;99.90;;;;;;4977942;28;20285;-76
2022/12/05 17:45:09;;;;;;;19.02;6.65;;;18.70;99.90;;;;;;4978404;28;20617;-76
2022/12/05 17:47:36;;;;;;;17.60;6.43;;;18.60;99.90;;;;;;5017218;23;20226;-77
2022/12/05 17:50:03;;;;;;;25.60;6.38;;;18.60;99.90;;;;;;4997690;28;20221;-75
2022/12/05 17:52:30;;;;;;;19.52;5.78;;;18.60;99.90;;;;;;4997661;28;20202;-74
2022/12/05 17:54:57;;;;;;;17.20;5.88;;;18.60;99.90;;;;;;4997645;28;20206;-74
2022/12/05 17:57:25;;;;;;;26.25;7.45;;;18.60;99.90;;;;;;4997439;28;20222;-74
2022/12/05 17:59:52;;;;;;;27.10;6.65;;;18.50;99.90;;;;;;4997471;28;20199;-74
2022/12/05 18:02:19;;;;;;;29.85;6.22;;;18.60;99.90;;;;;;4997097;28;20676;-75
2022/12/05 18:04:46;;;;;;;22.65;6.28;;;18.80;99.90;;;;;;4997385;28;20210;-74
2022/12/05 18:07:13;;;;;;;23.27;6.13;;;19.00;99.90;;;;;;4997454;28;20713;-76
2022/12/05 18:09:39;;;;;;;19.65;5.75;;;19.10;99.90;;;;;;4997351;28;20245;-75
2022/12/05 18:12:06;;;;;;;21.02;5.28;;;19.40;99.90;;;;;;4999025;28;20205;-76
2022/12/05 18:14:35;;;;;;;18.92;5.90;;;19.40;99.90;;;;;;5001602;28;20202;-79
2022/12/05 18:17:03;;;;;;;24.33;6.45;;;19.50;99.90;;;;;;5002567;28;20221;-81
2022/12/05 18:19:30;;;;;;;16.60;5.30;;;19.40;99.90;;;;;;5001057;28;20202;-83
2022/12/05 18:21:57;;;;;;;17.45;5.60;;;19.50;99.90;;;;;;5000257;28;20593;-81
2022/12/05 18:24:23;;;;;;;14.65;5.13;;;19.50;99.90;;;;;;5000275;28;20202;-76
2022/12/05 18:26:50;;;;;;;20.02;5.50;;;19.50;99.90;;;;;;4999418;28;20230;-77
2022/12/05 18:29:17;;;;;;;23.98;5.30;;;19.40;99.90;;;;;;4999553;28;20227;-77
2022/12/05 18:31:45;;;;;;;17.27;5.50;;;19.40;99.90;;;;;;4999005;28;20576;-79
2022/12/05 18:34:11;;;;;;;13.85;4.55;;;19.40;99.90;;;;;;5001245;28;20198;-81
2022/12/05 18:36:38;;;;;;;18.02;4.63;;;19.50;99.90;;;;;;5000202;28;20233;-79
2022/12/05 18:39:05;;;;;;;15.60;5.07;;;19.40;99.90;;;;;;5000105;28;20593;-80
2022/12/05 18:41:32;;;;;;;12.75;4.80;;;19.60;99.90;;;;;;4998364;28;20213;-78
2022/12/05 18:43:59;;;;;;;17.10;4.95;;;19.50;99.90;;;;;;4999907;28;20202;-79
2022/12/05 18:46:26;;;;;;;12.15;4.63;;;19.50;99.90;;;;;;5000899;28;20236;-77
2022/12/05 18:48:54;;;;;;;20.10;5.40;;;19.50;99.90;;;;;;4999089;28;20186;-80
2022/12/05 18:51:23;;;;;;;12.07;4.10;;;19.30;99.90;;;;;;4999562;28;20206;-81
2022/12/05 18:53:52;;;;;;;15.48;5.30;;;19.40;99.90;;;;;;5000605;28;20674;-83
2022/12/05 18:56:21;;;;;;;14.25;4.28;;;19.40;99.90;;;;;;5002591;28;20226;-83
2022/12/05 18:58:54;;;;;;;15.63;4.28;;;19.30;99.90;;;;;;5005800;28;20292;-78
2022/12/05 19:01:20;;;;;;;17.63;4.80;;;19.30;99.90;;;;;;5001468;28;20289;-79
2022/12/05 19:03:47;;;;;;;21.83;4.82;;;19.30;99.90;;;;;;4998182;28;20225;-80
2022/12/05 19:06:17;;;;;;;18.05;4.18;;;19.20;99.90;;;;;;4998144;28;20229;-79
2022/12/05 19:08:45;;;;;;;16.73;4.15;;;19.20;99.90;;;;;;4998488;28;20661;-83
2022/12/05 19:11:12;;;;;;;17.67;3.83;;;19.30;99.90;;;;;;4999151;28;20198;-78
2022/12/05 19:13:39;;;;;;;26.45;5.00;;;19.20;99.90;;;;;;4996716;28;20206;-78
2022/12/05 19:16:08;;;;;;;32.95;4.63;;;19.10;99.90;;;;;;4996769;28;20198;-75
2022/12/05 19:18:35;;;;;;;22.80;4.28;;;19.10;99.90;;;;;;4995973;28;20207;-74
2022/12/05 19:21:02;;;;;;;17.55;4.75;;;19.20;99.90;;;;;;4996038;28;20220;-72
2022/12/05 19:23:32;;;;;;;17.30;4.38;;;19.10;99.90;;;;;;4996103;28;20577;-73
2022/12/05 19:26:00;;;;;;;16.17;4.75;;;19.10;99.90;;;;;;4995578;28;20646;-73
2022/12/05 19:28:27;;;;;;;17.45;4.00;;;19.00;99.90;;;;;;4995528;28;20670;-73
2022/12/05 19:30:59;;;;;;;9.43;3.40;;;19.10;99.90;;;;;;4995416;28;20214;-73
2022/12/05 19:33:30;;;;;;;10.35;3.58;;;19.10;99.90;;;;;;4995780;28;20186;-72
2022/12/05 19:36:00;;;;;;;21.00;4.18;;;19.10;99.90;;;;;;4995318;28;20673;-72
2022/12/05 19:38:32;;;;;;;16.50;4.35;;;19.10;99.90;;;;;;4995409;28;20198;-72
2022/12/05 19:40:59;;;;;;;12.50;3.97;;;19.10;99.90;;;;;;4995670;28;20614;-72
2022/12/05 19:43:28;;;;;;;9.52;3.53;;;19.20;99.90;;;;;;4995354;28;20573;-72
2022/12/05 19:45:55;;;;;;;15.68;4.00;;;19.10;99.90;;;;;;4994988;28;20209;-72
2022/12/05 19:48:22;;;;;;;10.32;3.92;;;19.10;99.90;;;;;;4995181;28;20668;-72
2022/12/05 19:50:54;;;;;;;13.38;4.30;;;19.10;99.90;;;;;;4995083;28;20727;-72
2022/12/05 19:53:20;;;;;;;9.60;3.15;;;19.10;99.90;;;;;;4995435;28;20188;-72
2022/12/05 19:55:48;;;;;;;13.02;3.65;;;19.10;99.90;;;;;;4995272;28;20208;-72
2022/12/05 19:58:15;;;;;;;13.50;3.90;;;19.10;99.90;;;;;;4995267;28;20202;-72
2022/12/05 20:00:43;;;;;;;8.00;3.35;;;19.10;99.90;;;;;;4995214;28;20205;-74
2022/12/05 20:03:10;;;;;;;11.27;3.40;;;19.00;99.90;;;;;;4995239;28;20205;-72
2022/12/05 20:05:37;;;;;;;11.15;3.75;;;19.10;99.90;;;;;;4995258;28;20210;-71
2022/12/05 20:08:04;;;;;;;11.52;3.40;;;19.10;99.90;;;;;;4995039;28;20260;-72
2022/12/05 20:10:30;;;;;;;10.05;3.25;;;19.20;99.90;;;;;;4994970;28;20222;-72
2022/12/05 20:12:58;;;;;;;12.23;3.38;;;19.20;99.90;;;;;;4995059;28;20198;-71
2022/12/05 20:15:25;;;;;;;7.65;3.13;;;19.20;99.90;;;;;;4995025;28;20297;-71
2022/12/05 20:17:52;;;;;;;14.07;3.13;;;19.30;99.90;;;;;;4994952;28;20218;-72
2022/12/05 20:20:19;;;;;;;8.50;2.97;;;19.20;99.90;;;;;;4994647;28;20205;-72
2022/12/05 20:22:46;;;;;;;15.30;3.80;;;19.20;99.90;;;;;;4994639;28;20198;-72
2022/12/05 20:25:12;;;;;;;10.48;3.08;;;19.20;99.90;;;;;;4994507;28;20661;-72
2022/12/05 20:27:39;;;;;;;14.02;3.78;;;19.30;99.90;;;;;;4994759;28;20373;-72
2022/12/05 20:30:08;;;;;;;6.97;3.10;;;19.20;99.90;;;;;;4994731;28;20218;-72
2022/12/05 20:32:35;;;;;;;9.45;3.70;;;19.10;99.90;;;;;;4994663;28;20206;-72
2022/12/05 20:35:02;;;;;;;13.98;3.60;;;19.20;99.90;;;;;;4994712;28;20214;-72
2022/12/05 20:37:29;;;;;;;6.90;3.15;;;19.10;99.90;;;;;;4994241;28;20735;-71
2022/12/05 20:39:55;;;;;;;5.13;3.33;;;19.10;99.90;;;;;;4994510;28;20198;-72
2022/12/05 20:42:22;;;;;;;7.38;3.10;;;19.10;99.90;;;;;;4994516;28;20202;-71
2022/12/05 20:44:49;;;;;;;6.43;2.90;;;19.10;99.90;;;;;;4994204;28;20209;-71
2022/12/05 20:47:17;;;;;;;11.07;2.78;;;19.10;99.90;;;;;;4994161;28;20238;-72
2022/12/05 20:49:43;;;;;;;6.45;3.30;;;19.00;99.90;;;;;;4994378;28;20313;-73
2022/12/05 20:52:10;;;;;;;7.60;3.00;;;19.00;99.90;;;;;;4994405;28;20206;-71
2022/12/05 20:54:37;;;;;;;8.93;3.60;;;19.00;99.90;;;;;;4994068;28;20684;-71
2022/12/05 20:57:04;;;;;;;7.35;3.40;;;19.10;99.90;;;;;;4993643;28;20237;-71
2022/12/05 20:59:30;;;;;;;6.68;3.15;;;19.10;99.90;;;;;;4994341;28;20622;-70
2022/12/05 21:01:57;;;;;;;9.18;3.50;;;19.10;99.90;;;;;;4994265;28;20210;-73
2022/12/05 21:04:25;;;;;;;5.60;2.95;;;19.10;99.90;;;;;;4994293;28;20202;-71
2022/12/05 21:06:52;;;;;;;4.72;3.13;;;19.10;99.90;;;;;;4993864;28;20717;-71
2022/12/05 21:09:25;;;;;;;7.25;3.33;;;19.10;99.90;;;;;;4994238;28;20206;-71
2022/12/05 21:11:52;;;;;;;5.20;2.80;;;19.20;99.90;;;;;;4994284;28;20230;-71
2022/12/05 21:14:19;;;;;;;3.72;2.80;;;19.20;99.90;;;;;;4994189;28;20202;-71
2022/12/05 21:16:46;;;;;;;4.97;2.50;;;19.10;99.90;;;;;;4993762;28;20732;-71
2022/12/05 21:19:13;;;;;;;3.88;2.85;;;19.20;99.90;;;;;;4993841;28;20684;-71
2022/12/05 21:21:41;;;;;;;7.22;3.03;;;19.10;99.90;;;;;;4994181;28;20205;-71
2022/12/05 21:24:09;;;;;;;10.77;2.97;;;19.20;99.90;;;;;;4994130;28;20206;-71
2022/12/05 21:26:36;;;;;;;5.10;2.97;;;19.20;99.90;;;;;;4994092;28;20225;-72
2022/12/05 21:29:04;;;;;;;7.28;2.55;;;19.20;99.90;;;;;;4994132;28;20209;-72
2022/12/05 21:31:33;;;;;;;6.65;2.72;;;19.20;99.90;;;;;;4994064;28;20222;-72
2022/12/05 21:34:02;;;;;;;4.82;2.88;;;19.20;99.90;;;;;;4994060;28;20202;-72
2022/12/05 21:36:31;;;;;;;3.58;2.65;;;19.20;99.90;;;;;;4993988;28;20226;-72
2022/12/05 21:38:59;;;;;;;6.05;3.00;;;19.20;99.90;;;;;;4993733;28;20684;-71
2022/12/05 21:41:26;;;;;;;4.03;2.58;;;19.20;99.90;;;;;;4993666;28;20202;-71
2022/12/05 21:43:53;;;;;;;5.13;2.83;;;19.20;99.90;;;;;;4993928;28;20198;-71
2022/12/05 21:46:20;;;;;;;3.15;2.25;;;19.20;99.90;;;;;;4993445;28;20740;-71
2022/12/05 21:48:47;;;;;;;9.80;2.85;;;19.20;99.90;;;;;;4993983;28;20190;-71
2022/12/05 21:51:14;;;;;;;5.68;3.10;;;19.10;99.90;;;;;;4994061;28;20313;-75
2022/12/05 21:53:41;;;;;;;6.20;2.85;;;19.20;99.90;;;;;;4994917;28;20208;-75
2022/12/05 21:56:14;;;;;;;5.68;2.50;;;19.20;99.90;;;;;;4994393;28;20305;-75
2022/12/05 21:58:42;;;;;;;8.60;3.20;;;19.00;99.90;;;;;;4994320;28;20190;-75
2022/12/05 22:01:10;;;;;;;11.30;2.65;;;19.10;99.90;;;;;;4993642;28;20289;-75
2022/12/05 22:03:37;;;;;;;4.80;2.50;;;19.10;99.90;;;;;;4994071;28;20217;-76
2022/12/05 22:06:05;;;;;;;5.70;2.63;;;19.20;99.90;;;;;;4993924;28;20279;-75
2022/12/05 22:08:32;;;;;;;5.90;3.03;;;19.10;99.90;;;;;;4996003;28;20206;-75
2022/12/05 22:11:08;;;;;;;6.70;3.05;;;19.20;99.90;;;;;;4997170;28;20656;-75
2022/12/05 22:13:36;;;;;;;12.43;2.88;;;19.10;99.90;;;;;;4997142;28;20209;-75
2022/12/05 22:16:03;;;;;;;7.38;2.70;;;19.20;99.90;;;;;;4997480;28;20296;-75
2022/12/05 22:18:31;;;;;;;5.63;2.53;;;19.20;99.90;;;;;;4997391;28;20621;-76
2022/12/05 22:20:58;;;;;;;3.72;2.88;;;19.20;99.90;;;;;;4997467;28;20205;-75
2022/12/05 22:23:26;;;;;;;4.03;2.47;;;19.20;99.90;;;;;;4997294;28;20293;-75
2022/12/05 22:25:57;;;;;;;3.22;2.33;;;18.30;99.90;;;;;;4997221;28;20218;-75
2022/12/05 22:28:24;;;;;;;4.93;2.65;;;19.30;99.90;;;;;;4997555;28;20208;-75
2022/12/05 22:30:54;;;;;;;2.95;2.42;;;19.20;99.90;;;;;;4997113;28;20272;-75
2022/12/05 22:33:23;;;;;;;3.58;2.45;;;19.20;99.90;;;;;;4996803;28;20292;-75
2022/12/05 22:35:55;;;;;;;4.60;2.67;;;19.30;99.90;;;;;;4996980;28;20546;-75
2022/12/05 22:38:22;;;;;;;5.38;2.63;;;19.30;99.90;;;;;;4997539;28;20233;-74
2022/12/05 22:40:54;;;;;;;2.40;2.20;;;19.40;99.90;;;;;;4997192;28;20204;-74
2022/12/05 22:43:21;;;;;;;8.57;2.60;;;19.10;99.90;;;;;;4997632;28;20190;-74
2022/12/05 22:45:48;;;;;;;2.58;2.38;;;19.90;99.90;;;;;;4996930;28;20292;-74
2022/12/05 22:48:16;;;;;;;5.47;2.85;;;19.20;99.90;;;;;;4996662;28;20300;-74
2022/12/05 22:50:47;;;;;;;5.03;2.17;;;19.20;99.90;;;;;;4997012;28;20230;-74
2022/12/05 22:53:14;;;;;;;5.80;2.50;;;19.20;99.90;;;;;;4997363;28;20281;-74
2022/12/05 22:55:42;;;;;;;6.20;2.60;;;19.20;99.90;;;;;;4996700;28;20206;-74
2022/12/05 22:58:09;;;;;;;4.50;2.22;;;19.10;99.90;;;;;;4996733;28;20240;-75
2022/12/05 23:00:35;;;;;;;2.97;2.17;;;19.30;99.90;;;;;;4996801;28;20286;-77
2022/12/05 23:03:03;;;;;;;5.03;2.55;;;19.10;99.90;;;;;;4996584;28;20285;-77
2022/12/05 23:05:31;;;;;;;6.38;2.47;;;17.90;99.90;;;;;;4996936;28;20230;-77
2022/12/05 23:08:00;;;;;;;4.80;2.28;;;19.20;99.90;;;;;;4996143;28;20230;-77
2022/12/05 23:10:27;;;;;;;4.22;2.40;;;19.20;99.90;;;;;;4996222;28;20225;-77
2022/12/05 23:12:55;;;;;;;9.38;2.83;;;19.10;99.90;;;;;;4996536;28;20293;-77
2022/12/05 23:15:22;;;;;;;3.90;2.10;;;19.20;99.90;;;;;;4996264;28;20241;-77
2022/12/05 23:17:49;;;;;;;3.50;2.20;;;19.20;99.90;;;;;;4996040;28;20238;-77
2022/12/05 23:20:16;;;;;;;11.85;2.85;;;19.10;99.90;;;;;;4995147;28;20198;-74
2022/12/05 23:22:45;;;;;;;7.82;2.47;;;19.10;99.90;;;;;;4996813;28;20206;-76
